createdAt,value
2018-12-18T00:03:19.516Z,61.33
2018-12-18T00:08:25.780Z,66.90
2018-12-18T00:13:30.033Z,62.87
2018-12-18T00:18:34.266Z,60.83
2018-12-18T00:23:38.358Z,62.93
2018-12-18T00:28:42.497Z,60.33
2018-12-18T00:33:46.592Z,70.13
2018-12-18T00:38:50.731Z,60.57
2018-12-18T00:43:54.844Z,65.50
2018-12-18T00:48:59.026Z,71.40
2018-12-18T00:54:03.116Z,62.87
2018-12-18T00:59:07.226Z,69.53
2018-12-18T01:04:11.319Z,78.20
2018-12-18T01:09:15.411Z,77.43
2018-12-18T01:14:20.405Z,72.67
2018-12-18T01:19:24.490Z,72.27
2018-12-18T01:24:28.863Z,64.97
2018-12-18T01:29:32.934Z,75.00
2018-12-18T01:34:37.010Z,85.17
2018-12-18T01:39:41.103Z,79.70
2018-12-18T01:44:45.210Z,80.67
2018-12-18T01:49:49.295Z,69.93
2018-12-18T01:54:53.399Z,67.27
2018-12-18T01:59:57.508Z,66.20
2018-12-18T02:05:01.605Z,63.33
2018-12-18T02:10:06.955Z,64.97
2018-12-18T02:15:11.059Z,75.37
2018-12-18T02:20:15.153Z,69.73
2018-12-18T02:25:19.241Z,74.50
2018-12-18T02:30:23.340Z,79.93
2018-12-18T02:35:27.425Z,84.57
2018-12-18T02:40:31.512Z,90.77
2018-12-18T02:45:35.684Z,69.03
2018-12-18T02:50:39.764Z,64.70
2018-12-18T02:55:43.856Z,74.20
2018-12-18T03:00:47.932Z,76.00
2018-12-18T03:05:52.035Z,78.70
2018-12-18T03:10:56.137Z,75.47
2018-12-18T03:16:00.251Z,70.37
2018-12-18T03:21:04.343Z,71.73
2018-12-18T03:26:08.461Z,74.77
2018-12-18T03:31:12.558Z,74.90
2018-12-18T03:36:16.687Z,74.57
2018-12-18T03:41:20.783Z,80.77
2018-12-18T03:46:24.876Z,86.13
2018-12-18T03:51:28.963Z,76.77
2018-12-18T03:56:33.073Z,86.00
2018-12-18T04:01:37.162Z,65.43
2018-12-18T04:06:41.379Z,78.40
2018-12-18T04:11:50.819Z,55.93
2018-12-18T04:16:54.932Z,60.60
2018-12-18T04:21:59.040Z,65.93
2018-12-18T04:27:03.242Z,69.70
2018-12-18T04:32:07.331Z,48.73
2018-12-18T04:37:12.562Z,61.80
2018-12-18T04:42:16.739Z,63.60
2018-12-18T04:47:20.859Z,64.10
2018-12-18T04:52:24.979Z,63.17
2018-12-18T04:57:29.098Z,60.20
2018-12-18T05:02:34.580Z,60.37
2018-12-18T05:07:39.699Z,62.67
2018-12-18T05:12:44.959Z,52.10
2018-12-18T05:17:50.174Z,53.10
2018-12-18T05:22:54.742Z,58.43
2018-12-18T05:27:59.933Z,65.43
2018-12-18T05:33:04.101Z,63.00
2018-12-18T05:38:10.251Z,59.80
2018-12-18T05:43:14.349Z,50.67
2018-12-18T05:48:19.338Z,52.97
2018-12-18T05:53:23.434Z,53.27
2018-12-18T05:58:27.531Z,78.23
2018-12-18T06:03:31.703Z,74.90
2018-12-18T06:08:35.798Z,67.80
2018-12-18T06:13:39.914Z,78.47
2018-12-18T06:18:44.021Z,72.97
2018-12-18T06:23:48.139Z,110.50
2018-12-18T06:28:52.415Z,78.50
2018-12-18T06:33:56.579Z,72.03
2018-12-18T06:39:00.362Z,93.90
2018-12-18T06:44:04.372Z,70.13
2018-12-18T06:49:08.497Z,74.67
2018-12-18T06:54:12.609Z,92.43
2018-12-18T06:59:16.693Z,92.67
2018-12-18T07:04:20.775Z,87.37
2018-12-18T07:09:24.866Z,97.70
2018-12-18T07:14:29.000Z,80.47
2018-12-18T07:19:33.219Z,71.83
2018-12-18T07:24:37.315Z,90.63
2018-12-18T07:29:41.113Z,90.57
2018-12-18T07:34:44.872Z,101.17
2018-12-18T07:39:48.958Z,113.97
2018-12-18T07:44:53.042Z,84.53
2018-12-18T07:49:57.147Z,88.80
2018-12-18T07:55:02.355Z,91.60
2018-12-18T08:00:06.719Z,81.30
2018-12-18T08:05:11.102Z,84.60
2018-12-18T08:10:15.275Z,86.80
2018-12-18T08:15:19.374Z,75.93
2018-12-18T08:20:23.496Z,89.27
2018-12-18T08:25:27.590Z,74.87
2018-12-18T08:30:31.691Z,73.27
2018-12-18T08:35:36.637Z,78.33
2018-12-18T08:40:40.998Z,75.93
2018-12-18T08:45:45.099Z,82.30
2018-12-18T08:50:49.327Z,63.20
2018-12-18T08:55:53.353Z,67.53
2018-12-18T09:00:57.363Z,66.57
2018-12-18T09:06:01.470Z,75.70
2018-12-18T09:11:05.562Z,65.93
2018-12-18T09:16:15.210Z,61.43
2018-12-18T09:21:19.317Z,56.73
2018-12-18T09:26:23.447Z,49.30
2018-12-18T09:31:27.634Z,52.57
2018-12-18T09:36:31.744Z,60.57
2018-12-18T09:41:39.830Z,55.17
2018-12-18T09:46:44.095Z,45.00
2018-12-18T09:51:48.194Z,53.53
2018-12-18T09:56:52.271Z,36.83
2018-12-18T10:01:56.418Z,35.17
2018-12-18T10:07:00.530Z,34.53
2018-12-18T10:12:04.877Z,36.60
2018-12-18T10:17:09.090Z,42.70
2018-12-18T10:22:12.889Z,44.23
2018-12-18T10:27:16.593Z,40.93
2018-12-18T10:32:20.418Z,41.57
2018-12-18T10:37:24.149Z,47.07
2018-12-18T10:42:27.941Z,42.23
2018-12-18T10:47:31.930Z,45.10
2018-12-18T10:52:38.961Z,49.50
2018-12-18T10:57:42.966Z,45.40
2018-12-18T11:02:46.732Z,48.03
2018-12-18T11:07:50.562Z,54.80
2018-12-18T11:12:59.858Z,54.40
2018-12-18T11:18:03.710Z,45.63
2018-12-18T11:23:07.485Z,50.30
2018-12-18T11:28:11.180Z,57.33
2018-12-18T11:33:15.890Z,49.03
2018-12-18T11:38:19.575Z,48.90
2018-12-18T11:43:23.273Z,48.03
2018-12-18T11:48:26.986Z,48.57
2018-12-18T11:53:31.450Z,57.03
2018-12-18T11:58:35.253Z,65.47
2018-12-18T12:03:39.250Z,52.37
2018-12-18T12:08:45.049Z,61.77
2018-12-18T12:13:49.111Z,75.37
2018-12-18T12:18:52.889Z,62.57
2018-12-18T12:23:58.231Z,60.03
2018-12-18T12:29:02.724Z,60.93
2018-12-18T12:34:06.971Z,65.53
2018-12-18T12:39:11.175Z,59.67
2018-12-18T12:44:15.888Z,76.70
2018-12-18T12:49:21.868Z,75.47
2018-12-18T12:54:25.737Z,73.73
2018-12-18T12:59:29.434Z,65.00
2018-12-18T13:04:33.153Z,61.70
2018-12-18T13:09:36.832Z,62.47
2018-12-18T13:14:40.551Z,61.33
2018-12-18T13:19:44.250Z,48.77
2018-12-18T13:24:49.062Z,47.80
2018-12-18T13:29:52.877Z,45.40
2018-12-18T13:34:56.898Z,39.13
2018-12-18T13:40:00.680Z,42.33
2018-12-18T13:45:04.542Z,39.57
2018-12-18T13:50:08.233Z,43.40
2018-12-18T13:55:11.925Z,45.17
2018-12-18T14:00:15.734Z,46.73
2018-12-18T14:05:19.430Z,45.53
2018-12-18T14:10:23.463Z,40.10
2018-12-18T14:15:27.369Z,42.87
2018-12-18T14:20:31.387Z,47.80
2018-12-18T14:25:35.181Z,41.47
2018-12-18T14:30:38.871Z,43.27
2018-12-18T14:35:42.558Z,35.17
2018-12-18T14:40:46.567Z,44.93
2018-12-18T14:45:50.336Z,35.73
2018-12-18T14:50:54.022Z,38.17
2018-12-18T14:55:57.770Z,39.97
2018-12-18T15:01:01.462Z,55.10
2018-12-18T15:06:06.166Z,44.87
2018-12-18T15:11:09.855Z,34.60
2018-12-18T15:16:13.589Z,36.73
2018-12-18T15:21:17.268Z,40.33
2018-12-18T15:26:21.090Z,39.60
2018-12-18T15:31:25.177Z,35.87
2018-12-18T15:36:29.664Z,39.60
2018-12-18T15:41:34.009Z,45.10
2018-12-18T15:46:38.285Z,44.47
2018-12-18T15:51:42.037Z,37.60
2018-12-18T15:56:45.775Z,41.83
2018-12-18T16:01:49.822Z,38.23
2018-12-18T16:06:54.053Z,34.97
2018-12-18T16:11:57.811Z,44.20
2018-12-18T16:17:03.101Z,37.93
2018-12-18T16:22:07.137Z,43.33
2018-12-18T16:27:11.099Z,33.70
2018-12-18T16:32:15.140Z,30.60
2018-12-18T16:37:22.958Z,35.20
2018-12-18T16:42:25.860Z,32.90
2018-12-18T16:47:30.594Z,39.83
2018-12-18T16:52:36.018Z,40.03
2018-12-18T16:57:40.323Z,38.53
2018-12-18T17:02:45.010Z,35.17
2018-12-18T17:07:49.292Z,36.90
2018-12-18T17:12:56.419Z,35.90
2018-12-18T17:18:00.479Z,36.07
2018-12-18T17:23:04.302Z,36.57
2018-12-18T17:28:08.897Z,38.13
2018-12-18T17:33:13.313Z,38.77
2018-12-18T17:38:17.393Z,40.00
2018-12-18T17:43:21.807Z,35.40
2018-12-18T17:48:25.909Z,34.00
2018-12-18T17:53:30.890Z,36.17
2018-12-18T17:58:35.621Z,44.20
2018-12-18T18:03:39.320Z,35.13
2018-12-18T18:08:43.197Z,34.67
2018-12-18T18:13:46.938Z,39.00
2018-12-18T18:18:50.629Z,40.37
2018-12-18T18:23:54.338Z,35.73
2018-12-18T18:28:58.362Z,37.90
2018-12-18T18:34:02.210Z,31.27
2018-12-18T18:39:07.045Z,27.73
2018-12-18T18:44:13.733Z,30.47
2018-12-18T18:49:18.953Z,27.97
2018-12-18T18:54:23.678Z,30.93
2018-12-18T18:59:27.464Z,43.13
2018-12-18T19:04:31.834Z,40.20
2018-12-18T19:09:36.630Z,30.57
2018-12-18T19:14:40.401Z,32.13
2018-12-18T19:19:44.185Z,36.30
2018-12-18T19:24:48.085Z,37.63
2018-12-18T19:29:51.887Z,40.10
2018-12-18T19:34:55.618Z,50.83
2018-12-18T19:39:59.654Z,49.53
2018-12-18T19:45:03.767Z,48.00
2018-12-18T19:50:07.691Z,39.87
2018-12-18T19:55:12.521Z,35.77
2018-12-18T20:00:17.366Z,44.33
2018-12-18T20:05:21.449Z,43.10
2018-12-18T20:10:25.362Z,44.63
2018-12-18T20:15:29.180Z,40.50
2018-12-18T20:20:33.886Z,44.17
2018-12-18T20:25:37.675Z,48.07
2018-12-18T20:30:41.856Z,49.07
2018-12-18T20:35:45.838Z,42.03
2018-12-18T20:40:50.618Z,39.73
2018-12-18T20:45:54.431Z,46.23
2018-12-18T20:50:58.117Z,50.77
2018-12-18T20:56:01.797Z,44.63
2018-12-18T21:01:06.899Z,56.63
2018-12-18T21:06:10.654Z,44.30
2018-12-18T21:11:14.535Z,44.30
2018-12-18T21:16:18.534Z,44.57
2018-12-18T21:21:22.305Z,49.20
2018-12-18T21:26:26.625Z,41.13
2018-12-18T21:31:30.598Z,37.57
2018-12-18T21:36:35.285Z,40.47
2018-12-18T21:41:39.546Z,44.40
2018-12-18T21:46:43.835Z,38.43
2018-12-18T21:51:48.395Z,38.63
2018-12-18T21:56:52.810Z,41.07
2018-12-18T22:01:56.933Z,50.93
2018-12-18T22:07:01.165Z,119.53
2018-12-18T22:12:05.291Z,77.77
2018-12-18T22:17:09.132Z,77.27
2018-12-18T22:22:13.768Z,135.50
2018-12-18T22:27:17.635Z,153.37
2018-12-18T22:32:21.741Z,109.17
2018-12-18T22:37:26.613Z,97.20
2018-12-18T22:42:31.385Z,127.23
2018-12-18T22:47:35.872Z,98.00
2018-12-18T22:52:40.615Z,78.97
2018-12-18T22:57:44.629Z,28.83
2018-12-18T23:02:49.729Z,76.53
2018-12-18T23:07:54.275Z,104.50
2018-12-18T23:12:59.403Z,105.33
2018-12-18T23:18:03.386Z,61.27
2018-12-18T23:23:07.943Z,39.37
2018-12-18T23:28:11.647Z,133.87
2018-12-18T23:33:15.728Z,71.30
2018-12-18T23:38:19.826Z,55.17
2018-12-18T23:43:23.756Z,67.60
2018-12-18T23:48:28.097Z,105.20
2018-12-18T23:53:31.880Z,92.37
2018-12-18T23:58:35.890Z,91.07
